Impacts TAF Board
For situational awareness. Not to be used for flight planning purposes.
IDs:

KDFW - Dallas-Ft Worth Intl, TX, US

Issued at 1332 UTC 21 Feb 2019
Updated at 1351 UTC 21 Feb 2019
Potential Impact None Slight Moderate High
Time1253Z 21/14Z 21/15Z 21/16Z 21/17Z 21/18Z 21/19Z 21/20Z 21/21Z 21/22Z 21/23Z 22/00Z 22/01Z 22/02Z>>
Type OBS PRVL PRVL PRVL PRVL PRVL PRVL PRVL PRVL PRVL PRVL PRVL PRVL PRVL
VIS 10 >6 >6 >6 >6 >6 >6 >6 >6 >6 >6 >6 >6 >6
CIG 160 80 80 80 80 80 80 45 45 45 45 22 22 12
Cover OVC BKN BKN BKN BKN BKN BKN BKN BKN BKN BKN BKN BKN OVC
FltCat VFR VFR VFR VFR VFR VFR VFR VFR VFR VFR VFR MVFR MVFR MVFR
WX -- VCSH VCSH VCSH VCSH VCSH VCSH -- -- -- -- -- -- --
WDir 100 100 100 100 100 100 100 100 100 100 100 90 90 80
WSpd 4 5 5 5 5 5 5 8 8 8 8 8 8 9
WGst -- -- -- -- -- -- -- -- -- -- -- -- -- --
Raw TAF
KDFW 211332Z 2114/2218 10005KT P6SM VCSH BKN080
  FM212000 10008KT P6SM BKN045
  FM220000 09008KT P6SM BKN022
  FM220200 08009KT P6SM OVC012
  FM220400 07008KT 5SM BR OVC007
  FM220900 05007KT 2SM -DZ BR OVC006


Raw METAR
KDFW 211253Z 10004KT 10SM BKN160 BKN240 OVC300 06/02 A2999 RMK AO2 SLP152 T00610017
KDFW 211153Z 09005KT 10SM BKN160 BKN240 OVC300 07/02 A2997 RMK AO2 SLP148 T00670017 10072 20039 55003
KDFW 211053Z 00000KT 10SM SCT170 BKN240 BKN300 05/02 A2997 RMK AO2 SLP148 T00500017

METAR Board
Radar Display
Forecast Discussion
For situational awareness. Not to be used for flight planning purposes.